sensor_id;sensor_type;location;lat;lon;timestamp;P1;P2;P0
44933;PMS3003;30667;43.614;1.442;2023-04-08T00:00:22;19.25;17.00;9.25
44933;PMS3003;30667;43.614;1.442;2023-04-08T00:02:47;13.00;13.00;7.75
44933;PMS3003;30667;43.614;1.442;2023-04-08T00:05:12;15.75;13.50;8.00
44933;PMS3003;30667;43.614;1.442;2023-04-08T00:07:38;13.75;13.00;8.00
44933;PMS3003;30667;43.614;1.442;2023-04-08T00:10:03;17.00;15.50;8.00
44933;PMS3003;30667;43.614;1.442;2023-04-08T00:12:30;16.40;15.40;8.40
44933;PMS3003;30667;43.614;1.442;2023-04-08T00:14:56;16.00;16.00;9.00
44933;PMS3003;30667;43.614;1.442;2023-04-08T00:17:22;16.60;14.60;8.60
44933;PMS3003;30667;43.614;1.442;2023-04-08T00:19:47;15.00;14.25;8.25
44933;PMS3003;30667;43.614;1.442;2023-04-08T00:22:12;16.50;14.75;9.00
44933;PMS3003;30667;43.614;1.442;2023-04-08T00:24:38;13.25;12.75;8.75
44933;PMS3003;30667;43.614;1.442;2023-04-08T00:27:04;16.00;13.20;7.00
44933;PMS3003;30667;43.614;1.442;2023-04-08T00:29:30;14.50;14.00;8.25
44933;PMS3003;30667;43.614;1.442;2023-04-08T00:31:56;14.50;13.25;8.00
44933;PMS3003;30667;43.614;1.442;2023-04-08T00:34:21;12.00;12.00;7.75
44933;PMS3003;30667;43.614;1.442;2023-04-08T00:36:47;13.00;12.50;7.75
44933;PMS3003;30667;43.614;1.442;2023-04-08T00:39:13;15.75;14.50;8.00
44933;PMS3003;30667;43.614;1.442;2023-04-08T00:41:38;14.40;14.00;8.00
44933;PMS3003;30667;43.614;1.442;2023-04-08T00:44:04;15.25;13.75;8.50
44933;PMS3003;30667;43.614;1.442;2023-04-08T00:46:30;17.50;13.50;8.00
44933;PMS3003;30667;43.614;1.442;2023-04-08T00:49:01;13.20;13.20;7.80
44933;PMS3003;30667;43.614;1.442;2023-04-08T00:51:30;14.25;14.00;8.25
44933;PMS3003;30667;43.614;1.442;2023-04-08T00:53:56;16.80;15.40;9.20
44933;PMS3003;30667;43.614;1.442;2023-04-08T00:56:21;13.00;12.25;7.50
44933;PMS3003;30667;43.614;1.442;2023-04-08T00:58:48;16.80;16.00;10.00
44933;PMS3003;30667;43.614;1.442;2023-04-08T01:01:21;15.00;13.80;8.20
44933;PMS3003;30667;43.614;1.442;2023-04-08T01:06:49;18.40;16.00;9.80
44933;PMS3003;30667;43.614;1.442;2023-04-08T01:09:22;16.20;15.80;8.00
44933;PMS3003;30667;43.614;1.442;2023-04-08T01:11:51;16.00;14.60;8.00
44933;PMS3003;30667;43.614;1.442;2023-04-08T01:14:19;16.20;15.20;9.60
44933;PMS3003;30667;43.614;1.442;2023-04-08T01:16:47;15.60;13.60;8.20
44933;PMS3003;30667;43.614;1.442;2023-04-08T01:19:18;15.75;15.00;8.00
44933;PMS3003;30667;43.614;1.442;2023-04-08T01:21:51;17.40;14.40;8.40
44933;PMS3003;30667;43.614;1.442;2023-04-08T01:24:21;13.40;12.40;7.60
44933;PMS3003;30667;43.614;1.442;2023-04-08T01:26:52;18.80;14.60;7.20
44933;PMS3003;30667;43.614;1.442;2023-04-08T01:29:21;12.00;12.00;7.00
44933;PMS3003;30667;43.614;1.442;2023-04-08T01:31:48;16.60;13.60;7.40
44933;PMS3003;30667;43.614;1.442;2023-04-08T01:34:15;15.60;13.40;7.40
44933;PMS3003;30667;43.614;1.442;2023-04-08T01:36:43;12.60;11.40;7.00
44933;PMS3003;30667;43.614;1.442;2023-04-08T01:39:10;11.60;11.00;6.00
44933;PMS3003;30667;43.614;1.442;2023-04-08T01:41:37;12.00;11.20;7.00
44933;PMS3003;30667;43.614;1.442;2023-04-08T01:44:03;12.00;11.60;6.00
44933;PMS3003;30667;43.614;1.442;2023-04-08T01:46:30;9.80;9.80;5.40
44933;PMS3003;30667;43.614;1.442;2023-04-08T01:48:57;11.40;10.40;5.60
44933;PMS3003;30667;43.614;1.442;2023-04-08T01:51:23;13.20;11.40;6.20
44933;PMS3003;30667;43.614;1.442;2023-04-08T01:53:51;15.60;13.20;7.20
44933;PMS3003;30667;43.614;1.442;2023-04-08T01:56:16;14.75;12.00;7.00
44933;PMS3003;30667;43.614;1.442;2023-04-08T01:58:47;14.80;14.20;7.00
44933;PMS3003;30667;43.614;1.442;2023-04-08T02:01:17;11.40;11.00;6.60
44933;PMS3003;30667;43.614;1.442;2023-04-08T02:03:46;12.00;12.00;7.00
44933;PMS3003;30667;43.614;1.442;2023-04-08T02:06:16;11.80;10.80;6.20
44933;PMS3003;30667;43.614;1.442;2023-04-08T02:08:41;14.80;12.00;6.00
44933;PMS3003;30667;43.614;1.442;2023-04-08T02:11:07;14.75;12.50;6.00
44933;PMS3003;30667;43.614;1.442;2023-04-08T02:13:32;12.75;11.75;7.00
44933;PMS3003;30667;43.614;1.442;2023-04-08T02:16:15;11.75;11.50;6.75
44933;PMS3003;30667;43.614;1.442;2023-04-08T02:18:49;13.80;12.00;7.00
44933;PMS3003;30667;43.614;1.442;2023-04-08T02:21:39;10.00;8.40;5.20
44933;PMS3003;30667;43.614;1.442;2023-04-08T02:24:11;11.00;10.20;6.00
44933;PMS3003;30667;43.614;1.442;2023-04-08T02:26:39;16.00;15.00;6.80
44933;PMS3003;30667;43.614;1.442;2023-04-08T02:29:08;11.60;9.80;6.00
44933;PMS3003;30667;43.614;1.442;2023-04-08T02:31:37;14.00;11.00;6.00
44933;PMS3003;30667;43.614;1.442;2023-04-08T02:34:07;12.00;11.20;6.00
44933;PMS3003;30667;43.614;1.442;2023-04-08T02:36:34;13.00;11.40;6.60
44933;PMS3003;30667;43.614;1.442;2023-04-08T02:39:00;12.25;12.25;7.00
44933;PMS3003;30667;43.614;1.442;2023-04-08T02:41:27;10.20;9.60;6.00
44933;PMS3003;30667;43.614;1.442;2023-04-08T02:43:54;10.20;10.00;5.60
44933;PMS3003;30667;43.614;1.442;2023-04-08T02:46:19;11.75;11.75;6.00
44933;PMS3003;30667;43.614;1.442;2023-04-08T02:48:45;12.50;12.00;6.00
44933;PMS3003;30667;43.614;1.442;2023-04-08T02:51:10;12.00;11.00;6.00
44933;PMS3003;30667;43.614;1.442;2023-04-08T02:53:36;11.75;11.00;6.00
44933;PMS3003;30667;43.614;1.442;2023-04-08T02:56:01;11.00;10.00;5.00
44933;PMS3003;30667;43.614;1.442;2023-04-08T02:58:27;11.00;10.50;6.00
44933;PMS3003;30667;43.614;1.442;2023-04-08T03:00:52;8.75;8.25;5.00
44933;PMS3003;30667;43.614;1.442;2023-04-08T03:03:17;12.00;11.75;7.00
44933;PMS3003;30667;43.614;1.442;2023-04-08T03:05:43;13.00;11.75;6.00
44933;PMS3003;30667;43.614;1.442;2023-04-08T03:08:08;10.75;9.75;5.50
44933;PMS3003;30667;43.614;1.442;2023-04-08T03:10:34;11.50;11.00;6.50
44933;PMS3003;30667;43.614;1.442;2023-04-08T03:12:59;11.00;10.25;6.00
44933;PMS3003;30667;43.614;1.442;2023-04-08T03:15:25;11.00;10.00;5.00
44933;PMS3003;30667;43.614;1.442;2023-04-08T03:17:50;11.50;11.00;6.00
44933;PMS3003;30667;43.614;1.442;2023-04-08T03:20:15;10.75;10.00;6.00
44933;PMS3003;30667;43.614;1.442;2023-04-08T03:22:41;11.25;11.25;6.00
44933;PMS3003;30667;43.614;1.442;2023-04-08T03:25:06;14.00;12.25;6.00
44933;PMS3003;30667;43.614;1.442;2023-04-08T03:27:32;10.00;9.40;5.00
44933;PMS3003;30667;43.614;1.442;2023-04-08T03:29:57;11.75;11.00;6.50
44933;PMS3003;30667;43.614;1.442;2023-04-08T03:32:23;10.25;10.25;4.50
44933;PMS3003;30667;43.614;1.442;2023-04-08T03:34:48;11.50;10.00;5.00
44933;PMS3003;30667;43.614;1.442;2023-04-08T03:37:17;11.20;10.60;5.40
44933;PMS3003;30667;43.614;1.442;2023-04-08T03:39:42;9.50;9.50;5.00
44933;PMS3003;30667;43.614;1.442;2023-04-08T03:42:07;9.25;9.25;5.00
44933;PMS3003;30667;43.614;1.442;2023-04-08T03:44:33;9.50;9.50;5.00
44933;PMS3003;30667;43.614;1.442;2023-04-08T03:46:58;10.00;10.00;6.00
44933;PMS3003;30667;43.614;1.442;2023-04-08T03:49:24;8.75;8.75;5.00
44933;PMS3003;30667;43.614;1.442;2023-04-08T03:51:49;12.00;11.50;5.00
44933;PMS3003;30667;43.614;1.442;2023-04-08T03:54:15;12.00;12.00;6.00
44933;PMS3003;30667;43.614;1.442;2023-04-08T03:56:40;10.50;10.50;6.00
44933;PMS3003;30667;43.614;1.442;2023-04-08T03:59:05;9.25;9.25;6.00
44933;PMS3003;30667;43.614;1.442;2023-04-08T04:01:31;14.50;11.25;6.00
44933;PMS3003;30667;43.614;1.442;2023-04-08T04:03:56;13.50;10.50;5.25
44933;PMS3003;30667;43.614;1.442;2023-04-08T04:06:22;10.00;8.75;5.00
44933;PMS3003;30667;43.614;1.442;2023-04-08T04:08:47;8.75;7.25;3.00
44933;PMS3003;30667;43.614;1.442;2023-04-08T04:11:14;8.80;8.80;5.20
44933;PMS3003;30667;43.614;1.442;2023-04-08T04:13:40;11.60;10.00;5.00
44933;PMS3003;30667;43.614;1.442;2023-04-08T04:16:05;11.00;10.50;5.00
44933;PMS3003;30667;43.614;1.442;2023-04-08T04:18:31;11.00;10.00;5.00
44933;PMS3003;30667;43.614;1.442;2023-04-08T04:20:56;11.75;10.50;6.00
44933;PMS3003;30667;43.614;1.442;2023-04-08T04:23:21;11.00;10.25;5.00
44933;PMS3003;30667;43.614;1.442;2023-04-08T04:25:49;10.40;10.20;5.20
44933;PMS3003;30667;43.614;1.442;2023-04-08T04:28:15;10.00;10.00;5.00
44933;PMS3003;30667;43.614;1.442;2023-04-08T04:30:40;12.50;10.50;5.00
44933;PMS3003;30667;43.614;1.442;2023-04-08T04:33:06;10.25;10.25;5.50
44933;PMS3003;30667;43.614;1.442;2023-04-08T04:35:31;11.00;9.40;4.40
44933;PMS3003;30667;43.614;1.442;2023-04-08T04:37:57;10.00;10.00;6.00
44933;PMS3003;30667;43.614;1.442;2023-04-08T04:40:23;10.25;9.50;5.25
44933;PMS3003;30667;43.614;1.442;2023-04-08T04:42:48;11.25;10.00;6.00
44933;PMS3003;30667;43.614;1.442;2023-04-08T04:45:13;12.00;11.00;5.75
44933;PMS3003;30667;43.614;1.442;2023-04-08T04:47:39;9.00;7.50;3.00
44933;PMS3003;30667;43.614;1.442;2023-04-08T04:50:05;10.50;10.00;5.50
44933;PMS3003;30667;43.614;1.442;2023-04-08T04:52:30;10.00;9.40;5.00
44933;PMS3003;30667;43.614;1.442;2023-04-08T04:54:56;11.25;9.25;5.00
44933;PMS3003;30667;43.614;1.442;2023-04-08T04:57:22;11.80;10.40;6.00
44933;PMS3003;30667;43.614;1.442;2023-04-08T04:59:48;10.75;10.25;6.00
44933;PMS3003;30667;43.614;1.442;2023-04-08T05:02:13;14.00;10.50;5.75
44933;PMS3003;30667;43.614;1.442;2023-04-08T05:04:39;14.00;12.25;6.75
44933;PMS3003;30667;43.614;1.442;2023-04-08T05:07:05;12.50;12.00;6.75
44933;PMS3003;30667;43.614;1.442;2023-04-08T05:09:30;14.25;12.00;6.00
44933;PMS3003;30667;43.614;1.442;2023-04-08T05:11:55;11.00;10.50;6.00
44933;PMS3003;30667;43.614;1.442;2023-04-08T05:14:21;14.50;13.00;6.00
44933;PMS3003;30667;43.614;1.442;2023-04-08T05:16:47;12.00;10.50;6.00
44933;PMS3003;30667;43.614;1.442;2023-04-08T05:19:12;13.75;10.25;6.00
44933;PMS3003;30667;43.614;1.442;2023-04-08T05:21:37;16.75;11.00;7.00
44933;PMS3003;30667;43.614;1.442;2023-04-08T05:24:03;12.00;11.00;5.75
44933;PMS3003;30667;43.614;1.442;2023-04-08T05:26:28;75.33;56.00;31.00
44933;PMS3003;30667;43.614;1.442;2023-04-08T05:28:54;47.75;38.00;21.75
44933;PMS3003;30667;43.614;1.442;2023-04-08T05:31:19;28.00;22.25;14.00
44933;PMS3003;30667;43.614;1.442;2023-04-08T05:33:45;26.20;24.40;16.00
44933;PMS3003;30667;43.614;1.442;2023-04-08T05:36:11;27.20;24.20;16.80
44933;PMS3003;30667;43.614;1.442;2023-04-08T05:38:37;19.20;18.00;11.20
44933;PMS3003;30667;43.614;1.442;2023-04-08T05:41:03;11.60;10.60;7.00
44933;PMS3003;30667;43.614;1.442;2023-04-08T05:43:29;14.25;12.00;6.00
44933;PMS3003;30667;43.614;1.442;2023-04-08T05:45:54;11.50;10.00;5.25
44933;PMS3003;30667;43.614;1.442;2023-04-08T05:48:20;13.00;11.00;6.00
44933;PMS3003;30667;43.614;1.442;2023-04-08T05:50:45;11.75;11.75;5.00
44933;PMS3003;30667;43.614;1.442;2023-04-08T05:53:12;11.40;11.00;5.00
44933;PMS3003;30667;43.614;1.442;2023-04-08T05:55:38;9.50;9.50;5.00
44933;PMS3003;30667;43.614;1.442;2023-04-08T05:58:05;10.00;9.00;5.00
44933;PMS3003;30667;43.614;1.442;2023-04-08T06:00:30;11.00;9.60;5.00
44933;PMS3003;30667;43.614;1.442;2023-04-08T06:02:56;9.00;9.00;5.00
44933;PMS3003;30667;43.614;1.442;2023-04-08T06:05:21;10.50;8.00;4.00
44933;PMS3003;30667;43.614;1.442;2023-04-08T06:07:47;9.75;9.75;5.00
44933;PMS3003;30667;43.614;1.442;2023-04-08T06:10:12;10.00;7.75;3.00
44933;PMS3003;30667;43.614;1.442;2023-04-08T06:12:37;10.75;9.00;5.00
44933;PMS3003;30667;43.614;1.442;2023-04-08T06:15:04;8.50;8.00;5.00
44933;PMS3003;30667;43.614;1.442;2023-04-08T06:17:30;9.20;8.60;3.00
44933;PMS3003;30667;43.614;1.442;2023-04-08T06:19:56;7.25;7.25;5.00
44933;PMS3003;30667;43.614;1.442;2023-04-08T06:22:21;10.50;9.50;6.00
44933;PMS3003;30667;43.614;1.442;2023-04-08T06:24:47;10.50;9.00;5.00
44933;PMS3003;30667;43.614;1.442;2023-04-08T06:27:12;10.75;9.50;5.00
44933;PMS3003;30667;43.614;1.442;2023-04-08T06:29:38;9.75;9.75;5.00
44933;PMS3003;30667;43.614;1.442;2023-04-08T06:32:03;8.50;8.50;4.50
44933;PMS3003;30667;43.614;1.442;2023-04-08T06:34:30;6.00;6.00;3.00
44933;PMS3003;30667;43.614;1.442;2023-04-08T06:36:55;9.75;8.25;3.25
44933;PMS3003;30667;43.614;1.442;2023-04-08T06:39:21;9.20;7.20;5.00
44933;PMS3003;30667;43.614;1.442;2023-04-08T06:41:46;9.25;9.25;4.50
44933;PMS3003;30667;43.614;1.442;2023-04-08T06:44:12;7.50;7.50;3.50
44933;PMS3003;30667;43.614;1.442;2023-04-08T06:46:37;9.25;8.00;3.00
44933;PMS3003;30667;43.614;1.442;2023-04-08T06:49:03;14.25;14.25;8.25
44933;PMS3003;30667;43.614;1.442;2023-04-08T06:51:30;8.40;7.60;4.80
44933;PMS3003;30667;43.614;1.442;2023-04-08T06:53:56;8.25;8.25;4.25
44933;PMS3003;30667;43.614;1.442;2023-04-08T06:56:21;8.75;6.75;3.00
44933;PMS3003;30667;43.614;1.442;2023-04-08T06:58:47;9.75;8.00;3.50
44933;PMS3003;30667;43.614;1.442;2023-04-08T07:01:12;8.00;8.00;3.75
44933;PMS3003;30667;43.614;1.442;2023-04-08T07:03:40;10.00;9.80;4.80
44933;PMS3003;30667;43.614;1.442;2023-04-08T07:06:05;7.25;7.25;5.00
44933;PMS3003;30667;43.614;1.442;2023-04-08T07:08:31;6.50;6.00;3.00
44933;PMS3003;30667;43.614;1.442;2023-04-08T07:10:56;7.75;7.75;3.25
44933;PMS3003;30667;43.614;1.442;2023-04-08T07:13:21;8.50;7.00;4.50
44933;PMS3003;30667;43.614;1.442;2023-04-08T07:15:47;6.80;6.80;3.00
44933;PMS3003;30667;43.614;1.442;2023-04-08T07:18:13;6.00;5.25;2.00
44933;PMS3003;30667;43.614;1.442;2023-04-08T07:20:38;6.50;6.00;3.00
44933;PMS3003;30667;43.614;1.442;2023-04-08T07:23:03;9.00;9.00;3.00
44933;PMS3003;30667;43.614;1.442;2023-04-08T07:25:29;9.25;7.00;2.75
44933;PMS3003;30667;43.614;1.442;2023-04-08T07:27:54;7.00;6.00;2.00
44933;PMS3003;30667;43.614;1.442;2023-04-08T07:30:20;10.00;7.80;3.80
44933;PMS3003;30667;43.614;1.442;2023-04-08T07:32:46;9.50;6.50;2.00
44933;PMS3003;30667;43.614;1.442;2023-04-08T07:35:11;5.75;5.00;2.00
44933;PMS3003;30667;43.614;1.442;2023-04-08T07:37:37;6.75;6.50;2.00
44933;PMS3003;30667;43.614;1.442;2023-04-08T07:40:02;5.50;3.00;2.00
44933;PMS3003;30667;43.614;1.442;2023-04-08T07:42:28;5.00;5.00;2.00
44933;PMS3003;30667;43.614;1.442;2023-04-08T07:44:53;5.75;5.00;1.75
44933;PMS3003;30667;43.614;1.442;2023-04-08T07:47:18;5.25;5.00;1.25
44933;PMS3003;30667;43.614;1.442;2023-04-08T07:49:47;6.00;5.00;1.00
44933;PMS3003;30667;43.614;1.442;2023-04-08T07:52:12;6.20;5.20;1.80
44933;PMS3003;30667;43.614;1.442;2023-04-08T07:54:38;5.00;5.00;1.00
44933;PMS3003;30667;43.614;1.442;2023-04-08T07:57:03;5.00;5.00;2.00
44933;PMS3003;30667;43.614;1.442;2023-04-08T07:59:31;5.00;5.00;1.75
44933;PMS3003;30667;43.614;1.442;2023-04-08T08:01:56;4.20;3.80;1.00
44933;PMS3003;30667;43.614;1.442;2023-04-08T08:04:21;5.75;5.00;1.50
44933;PMS3003;30667;43.614;1.442;2023-04-08T08:06:49;7.00;5.80;2.00
44933;PMS3003;30667;43.614;1.442;2023-04-08T08:09:15;5.00;5.00;1.75
44933;PMS3003;30667;43.614;1.442;2023-04-08T08:11:40;6.00;5.50;1.00
44933;PMS3003;30667;43.614;1.442;2023-04-08T08:14:05;5.25;5.00;1.75
44933;PMS3003;30667;43.614;1.442;2023-04-08T08:16:31;5.00;5.00;1.40
44933;PMS3003;30667;43.614;1.442;2023-04-08T08:18:57;3.00;3.00;1.50
44933;PMS3003;30667;43.614;1.442;2023-04-08T08:21:23;5.00;5.00;2.00
44933;PMS3003;30667;43.614;1.442;2023-04-08T08:23:50;4.50;3.00;1.00
44933;PMS3003;30667;43.614;1.442;2023-04-08T08:26:17;5.60;5.20;2.00
44933;PMS3003;30667;43.614;1.442;2023-04-08T08:28:42;6.25;6.25;2.00
44933;PMS3003;30667;43.614;1.442;2023-04-08T08:31:07;5.00;5.00;1.00
44933;PMS3003;30667;43.614;1.442;2023-04-08T08:33:33;5.00;5.00;1.50
44933;PMS3003;30667;43.614;1.442;2023-04-08T08:35:58;7.00;5.50;1.75
44933;PMS3003;30667;43.614;1.442;2023-04-08T08:38:24;6.00;5.00;2.00
44933;PMS3003;30667;43.614;1.442;2023-04-08T08:40:55;6.75;6.25;2.50
44933;PMS3003;30667;43.614;1.442;2023-04-08T08:43:26;4.20;4.20;1.00
44933;PMS3003;30667;43.614;1.442;2023-04-08T08:45:52;4.80;4.80;2.00
44933;PMS3003;30667;43.614;1.442;2023-04-08T08:48:18;5.00;4.80;2.00
44933;PMS3003;30667;43.614;1.442;2023-04-08T08:50:44;7.00;7.00;2.00
44933;PMS3003;30667;43.614;1.442;2023-04-08T08:53:10;5.60;5.60;2.60
44933;PMS3003;30667;43.614;1.442;2023-04-08T08:55:36;5.20;5.20;1.60
44933;PMS3003;30667;43.614;1.442;2023-04-08T08:58:05;5.60;4.80;1.00
44933;PMS3003;30667;43.614;1.442;2023-04-08T09:00:35;4.60;4.60;2.00
44933;PMS3003;30667;43.614;1.442;2023-04-08T09:03:17;3.40;3.00;1.00
44933;PMS3003;30667;43.614;1.442;2023-04-08T09:08:27;3.20;3.00;1.00
44933;PMS3003;30667;43.614;1.442;2023-04-08T09:11:16;2.60;2.60;1.00
44933;PMS3003;30667;43.614;1.442;2023-04-08T09:13:46;4.60;3.00;1.00
44933;PMS3003;30667;43.614;1.442;2023-04-08T09:16:12;4.80;4.20;1.60
44933;PMS3003;30667;43.614;1.442;2023-04-08T09:18:46;4.60;3.00;1.00
44933;PMS3003;30667;43.614;1.442;2023-04-08T09:21:13;4.60;3.80;2.00
44933;PMS3003;30667;43.614;1.442;2023-04-08T09:26:08;2.60;2.60;1.00
44933;PMS3003;30667;43.614;1.442;2023-04-08T09:28:34;5.20;4.80;1.80
44933;PMS3003;30667;43.614;1.442;2023-04-08T09:30:59;6.50;4.25;2.00
44933;PMS3003;30667;43.614;1.442;2023-04-08T09:33:31;6.00;4.75;2.00
44933;PMS3003;30667;43.614;1.442;2023-04-08T09:35:56;5.00;4.20;1.40
44933;PMS3003;30667;43.614;1.442;2023-04-08T09:38:22;4.25;3.75;1.25
44933;PMS3003;30667;43.614;1.442;2023-04-08T09:40:47;7.00;6.00;2.00
44933;PMS3003;30667;43.614;1.442;2023-04-08T09:43:14;4.00;4.00;2.00
44933;PMS3003;30667;43.614;1.442;2023-04-08T09:45:46;3.40;3.40;2.00
44933;PMS3003;30667;43.614;1.442;2023-04-08T09:48:16;3.60;3.00;2.00
44933;PMS3003;30667;43.614;1.442;2023-04-08T09:50:48;2.00;2.00;0.40
44933;PMS3003;30667;43.614;1.442;2023-04-08T09:53:25;3.00;2.80;1.00
44933;PMS3003;30667;43.614;1.442;2023-04-08T09:55:58;4.00;3.00;1.00
44933;PMS3003;30667;43.614;1.442;2023-04-08T09:58:31;3.00;3.00;1.00
44933;PMS3003;30667;43.614;1.442;2023-04-08T10:01:02;3.60;3.00;1.00
44933;PMS3003;30667;43.614;1.442;2023-04-08T10:03:32;3.00;3.00;1.20
44933;PMS3003;30667;43.614;1.442;2023-04-08T10:06:00;3.00;3.00;1.00
44933;PMS3003;30667;43.614;1.442;2023-04-08T10:08:27;3.00;3.00;1.00
44933;PMS3003;30667;43.614;1.442;2023-04-08T10:10:53;2.50;2.50;1.00
44933;PMS3003;30667;43.614;1.442;2023-04-08T10:13:20;3.20;3.00;1.00
44933;PMS3003;30667;43.614;1.442;2023-04-08T10:15:46;1.80;1.80;0.00
44933;PMS3003;30667;43.614;1.442;2023-04-08T10:23:07;3.00;3.00;1.00
44933;PMS3003;30667;43.614;1.442;2023-04-08T10:25:43;5.60;3.80;1.00
44933;PMS3003;30667;43.614;1.442;2023-04-08T10:33:08;4.40;4.40;1.60
44933;PMS3003;30667;43.614;1.442;2023-04-08T10:38:39;4.80;3.40;1.00
44933;PMS3003;30667;43.614;1.442;2023-04-08T10:41:06;4.00;3.00;1.00
44933;PMS3003;30667;43.614;1.442;2023-04-08T10:43:32;4.50;3.00;1.00
44933;PMS3003;30667;43.614;1.442;2023-04-08T10:45:59;3.00;2.80;1.00
44933;PMS3003;30667;43.614;1.442;2023-04-08T10:48:24;7.25;6.75;3.25
44933;PMS3003;30667;43.614;1.442;2023-04-08T10:53:32;3.20;3.20;1.00
44933;PMS3003;30667;43.614;1.442;2023-04-08T10:58:31;3.40;3.00;1.00
44933;PMS3003;30667;43.614;1.442;2023-04-08T11:01:06;2.60;2.60;1.00
44933;PMS3003;30667;43.614;1.442;2023-04-08T11:03:32;3.40;3.40;0.80
44933;PMS3003;30667;43.614;1.442;2023-04-08T11:05:59;3.20;3.20;1.00
44933;PMS3003;30667;43.614;1.442;2023-04-08T11:08:29;3.00;3.00;1.00
44933;PMS3003;30667;43.614;1.442;2023-04-08T11:11:00;3.00;3.00;1.00
44933;PMS3003;30667;43.614;1.442;2023-04-08T11:13:26;3.60;3.60;1.00
44933;PMS3003;30667;43.614;1.442;2023-04-08T11:15:53;3.40;3.00;1.00
44933;PMS3003;30667;43.614;1.442;2023-04-08T11:18:20;3.60;3.00;1.00
44933;PMS3003;30667;43.614;1.442;2023-04-08T11:20:49;4.80;4.00;1.00
44933;PMS3003;30667;43.614;1.442;2023-04-08T11:23:16;6.20;3.60;1.00
44933;PMS3003;30667;43.614;1.442;2023-04-08T11:25:42;6.00;4.60;1.80
44933;PMS3003;30667;43.614;1.442;2023-04-08T11:28:09;2.20;2.20;1.00
44933;PMS3003;30667;43.614;1.442;2023-04-08T11:30:35;2.80;2.80;0.60
44933;PMS3003;30667;43.614;1.442;2023-04-08T11:33:01;3.00;3.00;1.00
44933;PMS3003;30667;43.614;1.442;2023-04-08T11:35:29;2.25;2.25;1.00
44933;PMS3003;30667;43.614;1.442;2023-04-08T11:37:55;4.00;3.20;1.00
44933;PMS3003;30667;43.614;1.442;2023-04-08T11:40:21;3.00;3.00;1.00
44933;PMS3003;30667;43.614;1.442;2023-04-08T11:42:48;3.00;3.00;0.80
44933;PMS3003;30667;43.614;1.442;2023-04-08T11:45:15;2.00;1.60;0.00
44933;PMS3003;30667;43.614;1.442;2023-04-08T11:47:43;3.00;2.00;0.00
44933;PMS3003;30667;43.614;1.442;2023-04-08T11:50:09;3.00;3.00;1.00
44933;PMS3003;30667;43.614;1.442;2023-04-08T11:55:10;3.00;3.00;1.00
44933;PMS3003;30667;43.614;1.442;2023-04-08T11:57:36;1.20;1.20;0.00
44933;PMS3003;30667;43.614;1.442;2023-04-08T12:00:04;2.80;2.20;1.00
44933;PMS3003;30667;43.614;1.442;2023-04-08T12:02:30;2.20;2.20;1.00
44933;PMS3003;30667;43.614;1.442;2023-04-08T12:04:55;2.25;2.00;1.00
44933;PMS3003;30667;43.614;1.442;2023-04-08T12:07:21;3.00;3.00;1.00
44933;PMS3003;30667;43.614;1.442;2023-04-08T12:09:46;3.50;3.00;1.00
44933;PMS3003;30667;43.614;1.442;2023-04-08T12:12:12;2.00;2.00;0.00
44933;PMS3003;30667;43.614;1.442;2023-04-08T12:14:37;2.25;2.25;0.00
44933;PMS3003;30667;43.614;1.442;2023-04-08T12:17:02;3.00;2.00;0.75
44933;PMS3003;30667;43.614;1.442;2023-04-08T12:19:28;2.00;2.00;1.00
44933;PMS3003;30667;43.614;1.442;2023-04-08T12:21:53;2.00;2.00;0.25
44933;PMS3003;30667;43.614;1.442;2023-04-08T12:24:19;3.00;3.00;0.75
44933;PMS3003;30667;43.614;1.442;2023-04-08T12:26:45;4.00;2.40;1.00
44933;PMS3003;30667;43.614;1.442;2023-04-08T12:29:10;3.00;2.25;1.00
44933;PMS3003;30667;43.614;1.442;2023-04-08T12:31:35;2.75;1.50;0.00
44933;PMS3003;30667;43.614;1.442;2023-04-08T12:34:01;3.00;2.75;1.00
44933;PMS3003;30667;43.614;1.442;2023-04-08T12:36:26;2.00;2.00;1.00
44933;PMS3003;30667;43.614;1.442;2023-04-08T12:38:52;2.50;1.75;0.00
44933;PMS3003;30667;43.614;1.442;2023-04-08T12:41:17;5.00;4.00;2.00
44933;PMS3003;30667;43.614;1.442;2023-04-08T12:43:42;5.00;4.00;1.75
44933;PMS3003;30667;43.614;1.442;2023-04-08T12:46:08;12.50;12.50;9.75
44933;PMS3003;30667;43.614;1.442;2023-04-08T12:48:33;43.33;38.67;30.67
44933;PMS3003;30667;43.614;1.442;2023-04-08T12:50:58;13.00;12.75;9.75
44933;PMS3003;30667;43.614;1.442;2023-04-08T12:53:24;31.33;30.33;24.67
44933;PMS3003;30667;43.614;1.442;2023-04-08T12:55:49;3.75;3.00;2.00
44933;PMS3003;30667;43.614;1.442;2023-04-08T12:58:16;2.40;2.00;0.00
44933;PMS3003;30667;43.614;1.442;2023-04-08T13:00:41;2.50;2.00;0.25
44933;PMS3003;30667;43.614;1.442;2023-04-08T13:03:10;5.00;4.40;2.20
44933;PMS3003;30667;43.614;1.442;2023-04-08T13:05:36;3.60;3.60;2.00
44933;PMS3003;30667;43.614;1.442;2023-04-08T13:08:02;3.00;3.00;1.00
44933;PMS3003;30667;43.614;1.442;2023-04-08T13:10:27;25.50;24.00;18.75
44933;PMS3003;30667;43.614;1.442;2023-04-08T13:12:53;54.67;46.67;35.67
44933;PMS3003;30667;43.614;1.442;2023-04-08T13:15:18;14.75;14.75;10.75
44933;PMS3003;30667;43.614;1.442;2023-04-08T13:17:44;36.33;35.33;27.00
44933;PMS3003;30667;43.614;1.442;2023-04-08T13:20:09;17.25;16.50;14.00
44933;PMS3003;30667;43.614;1.442;2023-04-08T13:22:35;5.00;5.00;3.00
44933;PMS3003;30667;43.614;1.442;2023-04-08T13:25:01;2.00;2.00;0.25
44933;PMS3003;30667;43.614;1.442;2023-04-08T13:27:26;2.00;2.00;0.00
44933;PMS3003;30667;43.614;1.442;2023-04-08T13:29:52;4.25;4.25;2.50
44933;PMS3003;30667;43.614;1.442;2023-04-08T13:32:17;14.00;13.75;10.00
44933;PMS3003;30667;43.614;1.442;2023-04-08T13:34:42;16.75;16.75;12.50
44933;PMS3003;30667;43.614;1.442;2023-04-08T13:37:08;16.75;16.25;12.25
44933;PMS3003;30667;43.614;1.442;2023-04-08T13:39:33;3.00;3.00;1.00
44933;PMS3003;30667;43.614;1.442;2023-04-08T13:41:59;1.75;1.75;0.00
44933;PMS3003;30667;43.614;1.442;2023-04-08T13:44:25;1.40;1.40;0.00
44933;PMS3003;30667;43.614;1.442;2023-04-08T13:46:51;1.00;1.00;0.00
44933;PMS3003;30667;43.614;1.442;2023-04-08T13:49:17;2.00;2.00;0.40
44933;PMS3003;30667;43.614;1.442;2023-04-08T13:51:42;1.00;1.00;0.00
44933;PMS3003;30667;43.614;1.442;2023-04-08T13:54:07;2.00;2.00;0.00
44933;PMS3003;30667;43.614;1.442;2023-04-08T13:56:33;1.00;1.00;0.00
44933;PMS3003;30667;43.614;1.442;2023-04-08T13:58:58;1.00;1.00;0.00
44933;PMS3003;30667;43.614;1.442;2023-04-08T14:01:23;2.75;2.00;0.75
44933;PMS3003;30667;43.614;1.442;2023-04-08T14:03:49;1.00;1.00;0.00
44933;PMS3003;30667;43.614;1.442;2023-04-08T14:06:14;0.00;0.00;0.00
44933;PMS3003;30667;43.614;1.442;2023-04-08T14:08:40;0.50;0.50;0.00
44933;PMS3003;30667;43.614;1.442;2023-04-08T14:11:05;1.50;1.00;0.00
44933;PMS3003;30667;43.614;1.442;2023-04-08T14:13:31;1.00;1.00;0.00
44933;PMS3003;30667;43.614;1.442;2023-04-08T14:15:56;0.50;0.00;0.00
44933;PMS3003;30667;43.614;1.442;2023-04-08T14:18:25;2.00;2.00;0.00
44933;PMS3003;30667;43.614;1.442;2023-04-08T14:20:51;0.80;0.80;0.00
44933;PMS3003;30667;43.614;1.442;2023-04-08T14:23:17;3.00;1.00;0.00
44933;PMS3003;30667;43.614;1.442;2023-04-08T14:25:42;4.50;4.50;2.75
44933;PMS3003;30667;43.614;1.442;2023-04-08T14:28:08;3.00;2.00;1.00
44933;PMS3003;30667;43.614;1.442;2023-04-08T14:30:33;2.00;2.00;0.00
44933;PMS3003;30667;43.614;1.442;2023-04-08T14:33:01;1.80;1.80;0.00
44933;PMS3003;30667;43.614;1.442;2023-04-08T14:35:29;1.00;1.00;0.00